Avera, GA

2:01 PM EDT on July 06, 2015 (GMT -0400)
Thomson-McDuffie County | | Change Station
CLOSE
Current Station
Airport
Location: Thomson,
Elevation: 499 ft
Nearby Weather Stations

Elev 499 ft 33.53 °N, 82.52 °W | Updated 26 minutes ago

Partly Cloudy
Partly Cloudy
86 °F
Feels Like 95 °F
N
8
Wind Variable Wind from SW

Today
High -- | Low -- °F
--% Chance of Precip.
Yesterday
High -- | Low -- °F
Precip. -- in
6:26 AM 8:42 PM
Waning Gibbous, 73% visible
Pressure 30.19 in
Visibility 10.0 miles
Clouds Scattered Clouds 3000 ft
Scattered Clouds 3700 ft
Scattered Clouds 4500 ft
Heat Index 95 °F
Dew Point 74 °F
Humidity 66%
Rainfall 0.00 in
Snow Depth Not available.
UV 10 out of 12
Pollen 3.40 out of 12
Air Quality Not available.
Flu Activity Not available.
METAR KHQU 061735Z AUTO 22007KT 10SM SCT030 SCT037 SCT045 30/23 A3019 RMK AO1 T03030232

More Conditions Fewer Conditions

Pressure 30.19 in
Visibility 10.0 miles
Clouds Scattered Clouds 3000 ft
Scattered Clouds 3700 ft
Scattered Clouds 4500 ft
Heat Index 95 °F
Dew Point 74 °F
Humidity 66%
Rainfall 0.00 in
Snow Depth Not available.
UV 10 out of 12
Pollen 3.40 out of 12
Air Quality Not available.
Flu Activity Not available.
METAR KHQU 061735Z AUTO 22007KT 10SM SCT030 SCT037 SCT045 30/23 A3019 RMK AO1 T03030232

More Conditions Fewer Conditions

10-Day Weather Forecast

×

Almanac

Astronomy

Jul. 06, 2015 Rise Set
Actual Time
Civil Twilight
Nautical Twilight
Astronomical Twilight
Moon
Length of Visible Light
Length of Day
Tomorrow will be .
, % of the Moon is Illuminated

Today's Extremes

State Highs State Lows

Community

WunderPhotos

Upload Photos

1,835,607 photos uploaded!

WunderBlogs® & News

Nearby

Air Quality

  Air Quality AQ Index Pollutant
Not available.

Snow Depth

Station Depth Elevation

Earthquake Activity

City Distance Mag. Time & Date
Minimum magnitude displayed is 2.5.

Coastal Water Temperatures

Place Temperature

Stations

Nearby Weather Stations

Station Location Temp. Windchill Dew Point Humidity Wind Precip. Elev Updated Type